sensor_id;sensor_type;location;lat;lon;timestamp;temperature;humidity
18218;DHT22;9234;49.344;11.120;2023-09-08T00:00:06;14.70;99.90
18218;DHT22;9234;49.344;11.120;2023-09-08T00:02:36;14.70;99.90
18218;DHT22;9234;49.344;11.120;2023-09-08T00:05:04;14.60;99.90
18218;DHT22;9234;49.344;11.120;2023-09-08T00:07:33;14.60;99.90
18218;DHT22;9234;49.344;11.120;2023-09-08T00:10:03;14.60;99.90
18218;DHT22;9234;49.344;11.120;2023-09-08T00:12:33;14.50;99.90
18218;DHT22;9234;49.344;11.120;2023-09-08T00:15:02;14.50;99.90
18218;DHT22;9234;49.344;11.120;2023-09-08T00:17:30;14.40;99.90
18218;DHT22;9234;49.344;11.120;2023-09-08T00:19:59;14.40;99.90
18218;DHT22;9234;49.344;11.120;2023-09-08T00:22:27;14.40;99.90
18218;DHT22;9234;49.344;11.120;2023-09-08T00:24:56;14.30;99.90
18218;DHT22;9234;49.344;11.120;2023-09-08T00:27:25;14.30;99.90
18218;DHT22;9234;49.344;11.120;2023-09-08T00:29:54;14.30;99.90
18218;DHT22;9234;49.344;11.120;2023-09-08T00:32:22;14.30;99.90
18218;DHT22;9234;49.344;11.120;2023-09-08T00:34:50;14.20;99.90
18218;DHT22;9234;49.344;11.120;2023-09-08T00:37:19;14.20;99.90
18218;DHT22;9234;49.344;11.120;2023-09-08T00:39:47;14.20;99.90
18218;DHT22;9234;49.344;11.120;2023-09-08T00:42:15;14.10;99.90
18218;DHT22;9234;49.344;11.120;2023-09-08T00:44:45;14.10;99.90
18218;DHT22;9234;49.344;11.120;2023-09-08T00:47:14;14.10;99.90
18218;DHT22;9234;49.344;11.120;2023-09-08T00:49:42;14.00;99.90
18218;DHT22;9234;49.344;11.120;2023-09-08T00:52:11;14.00;99.90
18218;DHT22;9234;49.344;11.120;2023-09-08T00:54:40;14.00;99.90
18218;DHT22;9234;49.344;11.120;2023-09-08T00:57:09;13.90;99.90
18218;DHT22;9234;49.344;11.120;2023-09-08T00:59:38;13.90;99.90
18218;DHT22;9234;49.344;11.120;2023-09-08T01:02:08;13.80;99.90
18218;DHT22;9234;49.344;11.120;2023-09-08T01:04:37;13.80;99.90
18218;DHT22;9234;49.344;11.120;2023-09-08T01:07:08;13.80;99.90
18218;DHT22;9234;49.344;11.120;2023-09-08T01:09:39;13.70;99.90
18218;DHT22;9234;49.344;11.120;2023-09-08T01:12:08;13.70;99.90
18218;DHT22;9234;49.344;11.120;2023-09-08T01:14:36;13.70;99.90
18218;DHT22;9234;49.344;11.120;2023-09-08T01:17:05;13.60;99.90
18218;DHT22;9234;49.344;11.120;2023-09-08T01:19:35;13.60;99.90
18218;DHT22;9234;49.344;11.120;2023-09-08T01:25:44;13.50;99.90
18218;DHT22;9234;49.344;11.120;2023-09-08T01:28:17;13.50;99.90
18218;DHT22;9234;49.344;11.120;2023-09-08T01:30:48;13.40;99.90
18218;DHT22;9234;49.344;11.120;2023-09-08T01:33:18;13.40;99.90
18218;DHT22;9234;49.344;11.120;2023-09-08T01:35:47;13.30;99.90
18218;DHT22;9234;49.344;11.120;2023-09-08T01:38:16;13.30;99.90
18218;DHT22;9234;49.344;11.120;2023-09-08T01:40:46;13.20;99.90
18218;DHT22;9234;49.344;11.120;2023-09-08T01:43:14;13.20;99.90
18218;DHT22;9234;49.344;11.120;2023-09-08T01:45:42;13.20;99.90
18218;DHT22;9234;49.344;11.120;2023-09-08T01:48:11;13.20;99.90
18218;DHT22;9234;49.344;11.120;2023-09-08T01:50:39;13.20;99.90
18218;DHT22;9234;49.344;11.120;2023-09-08T01:53:07;13.10;99.90
18218;DHT22;9234;49.344;11.120;2023-09-08T01:55:35;13.00;99.90
18218;DHT22;9234;49.344;11.120;2023-09-08T01:58:05;13.00;99.90
18218;DHT22;9234;49.344;11.120;2023-09-08T02:00:33;13.00;99.90
18218;DHT22;9234;49.344;11.120;2023-09-08T02:03:02;12.90;99.90
18218;DHT22;9234;49.344;11.120;2023-09-08T02:05:30;12.90;99.90
18218;DHT22;9234;49.344;11.120;2023-09-08T02:08:01;12.90;99.90
18218;DHT22;9234;49.344;11.120;2023-09-08T02:10:32;12.90;99.90
18218;DHT22;9234;49.344;11.120;2023-09-08T02:13:01;12.80;99.90
18218;DHT22;9234;49.344;11.120;2023-09-08T02:15:35;12.80;99.90
18218;DHT22;9234;49.344;11.120;2023-09-08T02:18:05;12.80;99.90
18218;DHT22;9234;49.344;11.120;2023-09-08T02:20:34;12.70;99.90
18218;DHT22;9234;49.344;11.120;2023-09-08T02:23:05;12.70;99.90
18218;DHT22;9234;49.344;11.120;2023-09-08T02:25:35;12.70;99.90
18218;DHT22;9234;49.344;11.120;2023-09-08T02:28:04;12.60;99.90
18218;DHT22;9234;49.344;11.120;2023-09-08T02:30:34;12.60;99.90
18218;DHT22;9234;49.344;11.120;2023-09-08T02:33:04;12.60;99.90
18218;DHT22;9234;49.344;11.120;2023-09-08T02:35:36;12.50;99.90
18218;DHT22;9234;49.344;11.120;2023-09-08T02:38:06;12.50;99.90
18218;DHT22;9234;49.344;11.120;2023-09-08T02:40:34;12.50;99.90
18218;DHT22;9234;49.344;11.120;2023-09-08T02:43:04;12.50;99.90
18218;DHT22;9234;49.344;11.120;2023-09-08T02:45:35;12.40;99.90
18218;DHT22;9234;49.344;11.120;2023-09-08T02:48:04;12.40;99.90
18218;DHT22;9234;49.344;11.120;2023-09-08T02:50:33;12.40;99.90
18218;DHT22;9234;49.344;11.120;2023-09-08T02:53:01;12.40;99.90
18218;DHT22;9234;49.344;11.120;2023-09-08T02:55:30;12.30;99.90
18218;DHT22;9234;49.344;11.120;2023-09-08T02:57:59;12.30;99.90
18218;DHT22;9234;49.344;11.120;2023-09-08T03:00:27;12.30;99.90
18218;DHT22;9234;49.344;11.120;2023-09-08T03:02:57;12.30;99.90
18218;DHT22;9234;49.344;11.120;2023-09-08T03:05:26;12.20;99.90
18218;DHT22;9234;49.344;11.120;2023-09-08T03:07:57;12.20;99.90
18218;DHT22;9234;49.344;11.120;2023-09-08T03:10:25;12.20;99.90
18218;DHT22;9234;49.344;11.120;2023-09-08T03:12:56;12.20;99.90
18218;DHT22;9234;49.344;11.120;2023-09-08T03:15:25;12.10;99.90
18218;DHT22;9234;49.344;11.120;2023-09-08T03:17:54;12.10;99.90
18218;DHT22;9234;49.344;11.120;2023-09-08T03:20:24;12.10;99.90
18218;DHT22;9234;49.344;11.120;2023-09-08T03:22:55;12.10;99.90
18218;DHT22;9234;49.344;11.120;2023-09-08T03:25:23;12.10;99.90
18218;DHT22;9234;49.344;11.120;2023-09-08T03:27:51;12.00;99.90
18218;DHT22;9234;49.344;11.120;2023-09-08T03:30:20;12.00;99.90
18218;DHT22;9234;49.344;11.120;2023-09-08T03:32:48;12.00;99.90
18218;DHT22;9234;49.344;11.120;2023-09-08T03:35:16;11.90;99.90
18218;DHT22;9234;49.344;11.120;2023-09-08T03:37:46;11.90;99.90
18218;DHT22;9234;49.344;11.120;2023-09-08T03:40:15;11.80;99.90
18218;DHT22;9234;49.344;11.120;2023-09-08T03:42:43;11.90;99.90
18218;DHT22;9234;49.344;11.120;2023-09-08T03:45:11;11.80;99.90
18218;DHT22;9234;49.344;11.120;2023-09-08T03:47:40;11.80;99.90
18218;DHT22;9234;49.344;11.120;2023-09-08T03:50:09;11.80;99.90
18218;DHT22;9234;49.344;11.120;2023-09-08T03:52:38;11.80;99.90
18218;DHT22;9234;49.344;11.120;2023-09-08T03:55:08;11.70;99.90
18218;DHT22;9234;49.344;11.120;2023-09-08T03:57:36;11.70;99.90
18218;DHT22;9234;49.344;11.120;2023-09-08T04:00:06;11.70;99.90
18218;DHT22;9234;49.344;11.120;2023-09-08T04:02:39;11.60;99.90
18218;DHT22;9234;49.344;11.120;2023-09-08T04:05:09;11.60;99.90
18218;DHT22;9234;49.344;11.120;2023-09-08T04:07:38;11.60;99.90
18218;DHT22;9234;49.344;11.120;2023-09-08T04:10:08;11.50;99.90
18218;DHT22;9234;49.344;11.120;2023-09-08T04:12:38;11.50;99.90
18218;DHT22;9234;49.344;11.120;2023-09-08T04:15:08;11.50;99.90
18218;DHT22;9234;49.344;11.120;2023-09-08T04:17:37;11.50;99.90
18218;DHT22;9234;49.344;11.120;2023-09-08T04:20:07;11.40;99.90
18218;DHT22;9234;49.344;11.120;2023-09-08T04:22:36;11.40;99.90
18218;DHT22;9234;49.344;11.120;2023-09-08T04:25:04;11.40;99.90
18218;DHT22;9234;49.344;11.120;2023-09-08T04:27:35;11.40;99.90
18218;DHT22;9234;49.344;11.120;2023-09-08T04:30:05;11.40;99.90
18218;DHT22;9234;49.344;11.120;2023-09-08T04:32:34;11.30;99.90
18218;DHT22;9234;49.344;11.120;2023-09-08T04:35:05;11.30;99.90
18218;DHT22;9234;49.344;11.120;2023-09-08T04:37:35;11.30;99.90
18218;DHT22;9234;49.344;11.120;2023-09-08T04:40:05;11.20;99.90
18218;DHT22;9234;49.344;11.120;2023-09-08T04:42:36;11.20;99.90
18218;DHT22;9234;49.344;11.120;2023-09-08T04:45:07;11.20;99.90
18218;DHT22;9234;49.344;11.120;2023-09-08T04:47:36;11.20;99.90
18218;DHT22;9234;49.344;11.120;2023-09-08T04:50:05;11.20;99.90
18218;DHT22;9234;49.344;11.120;2023-09-08T04:52:35;11.20;99.90
18218;DHT22;9234;49.344;11.120;2023-09-08T04:55:05;11.10;99.90
18218;DHT22;9234;49.344;11.120;2023-09-08T04:57:37;11.10;99.90
18218;DHT22;9234;49.344;11.120;2023-09-08T05:00:06;11.10;99.90
18218;DHT22;9234;49.344;11.120;2023-09-08T05:02:35;11.10;99.90
18218;DHT22;9234;49.344;11.120;2023-09-08T05:05:05;11.10;99.90
18218;DHT22;9234;49.344;11.120;2023-09-08T05:07:33;11.10;99.90
18218;DHT22;9234;49.344;11.120;2023-09-08T05:10:02;11.10;99.90
18218;DHT22;9234;49.344;11.120;2023-09-08T05:12:34;11.10;99.90
18218;DHT22;9234;49.344;11.120;2023-09-08T05:15:05;11.10;99.90
18218;DHT22;9234;49.344;11.120;2023-09-08T05:17:44;11.10;99.90
18218;DHT22;9234;49.344;11.120;2023-09-08T05:20:13;11.20;99.90
18218;DHT22;9234;49.344;11.120;2023-09-08T05:22:41;11.20;99.90
18218;DHT22;9234;49.344;11.120;2023-09-08T05:25:10;11.20;99.90
18218;DHT22;9234;49.344;11.120;2023-09-08T05:27:41;11.30;99.90
18218;DHT22;9234;49.344;11.120;2023-09-08T05:30:11;11.30;99.90
18218;DHT22;9234;49.344;11.120;2023-09-08T05:32:40;11.30;99.90
18218;DHT22;9234;49.344;11.120;2023-09-08T05:35:09;11.30;99.90
18218;DHT22;9234;49.344;11.120;2023-09-08T05:37:37;11.40;99.90
18218;DHT22;9234;49.344;11.120;2023-09-08T05:40:07;11.40;99.90
18218;DHT22;9234;49.344;11.120;2023-09-08T05:42:35;11.40;99.90
18218;DHT22;9234;49.344;11.120;2023-09-08T05:45:05;11.50;99.90
18218;DHT22;9234;49.344;11.120;2023-09-08T05:47:36;11.60;99.90
18218;DHT22;9234;49.344;11.120;2023-09-08T05:50:05;11.60;99.90
18218;DHT22;9234;49.344;11.120;2023-09-08T05:52:34;11.70;99.90
18218;DHT22;9234;49.344;11.120;2023-09-08T05:55:02;11.70;99.90
18218;DHT22;9234;49.344;11.120;2023-09-08T05:57:31;11.80;99.90
18218;DHT22;9234;49.344;11.120;2023-09-08T06:00:02;11.80;99.90
18218;DHT22;9234;49.344;11.120;2023-09-08T06:02:40;11.90;99.90
18218;DHT22;9234;49.344;11.120;2023-09-08T06:05:11;12.00;99.90
18218;DHT22;9234;49.344;11.120;2023-09-08T06:07:40;12.10;99.90
18218;DHT22;9234;49.344;11.120;2023-09-08T06:10:23;12.10;99.90
18218;DHT22;9234;49.344;11.120;2023-09-08T06:12:52;12.20;99.90
18218;DHT22;9234;49.344;11.120;2023-09-08T06:15:20;12.30;99.90
18218;DHT22;9234;49.344;11.120;2023-09-08T06:17:50;12.40;99.90
18218;DHT22;9234;49.344;11.120;2023-09-08T06:20:18;12.50;99.90
18218;DHT22;9234;49.344;11.120;2023-09-08T06:22:47;12.60;99.90
18218;DHT22;9234;49.344;11.120;2023-09-08T06:25:16;12.70;99.90
18218;DHT22;9234;49.344;11.120;2023-09-08T06:27:45;12.80;99.90
18218;DHT22;9234;49.344;11.120;2023-09-08T06:30:13;12.90;99.90
18218;DHT22;9234;49.344;11.120;2023-09-08T06:32:43;13.00;99.90
18218;DHT22;9234;49.344;11.120;2023-09-08T06:35:13;13.10;99.90
18218;DHT22;9234;49.344;11.120;2023-09-08T06:37:42;13.20;99.90
18218;DHT22;9234;49.344;11.120;2023-09-08T06:40:10;13.30;99.90
18218;DHT22;9234;49.344;11.120;2023-09-08T06:42:39;13.50;99.90
18218;DHT22;9234;49.344;11.120;2023-09-08T06:45:18;13.60;99.90
18218;DHT22;9234;49.344;11.120;2023-09-08T06:47:46;13.70;99.90
18218;DHT22;9234;49.344;11.120;2023-09-08T06:50:18;13.80;99.90
18218;DHT22;9234;49.344;11.120;2023-09-08T06:52:46;13.90;99.90
18218;DHT22;9234;49.344;11.120;2023-09-08T06:55:15;14.00;99.90
18218;DHT22;9234;49.344;11.120;2023-09-08T06:57:44;14.20;99.90
18218;DHT22;9234;49.344;11.120;2023-09-08T07:00:13;14.30;99.90
18218;DHT22;9234;49.344;11.120;2023-09-08T07:02:44;14.40;99.90
18218;DHT22;9234;49.344;11.120;2023-09-08T07:05:13;14.50;99.90
18218;DHT22;9234;49.344;11.120;2023-09-08T07:07:43;14.60;99.90
18218;DHT22;9234;49.344;11.120;2023-09-08T07:10:12;14.80;99.90
18218;DHT22;9234;49.344;11.120;2023-09-08T07:12:40;14.90;99.90
18218;DHT22;9234;49.344;11.120;2023-09-08T07:15:10;15.00;99.90
18218;DHT22;9234;49.344;11.120;2023-09-08T07:17:38;15.20;99.90
18218;DHT22;9234;49.344;11.120;2023-09-08T07:20:08;15.30;99.90
18218;DHT22;9234;49.344;11.120;2023-09-08T07:22:37;15.40;99.90
18218;DHT22;9234;49.344;11.120;2023-09-08T07:25:08;15.60;99.90
18218;DHT22;9234;49.344;11.120;2023-09-08T07:27:36;15.70;99.90
18218;DHT22;9234;49.344;11.120;2023-09-08T07:30:06;15.80;99.90
18218;DHT22;9234;49.344;11.120;2023-09-08T07:32:36;16.00;99.90
18218;DHT22;9234;49.344;11.120;2023-09-08T07:35:05;16.10;99.90
18218;DHT22;9234;49.344;11.120;2023-09-08T07:37:42;16.20;99.90
18218;DHT22;9234;49.344;11.120;2023-09-08T07:40:13;16.40;99.90
18218;DHT22;9234;49.344;11.120;2023-09-08T07:42:41;16.50;99.90
18218;DHT22;9234;49.344;11.120;2023-09-08T07:45:10;16.60;99.90
18218;DHT22;9234;49.344;11.120;2023-09-08T07:47:39;16.80;99.90
18218;DHT22;9234;49.344;11.120;2023-09-08T07:50:18;16.90;99.90
18218;DHT22;9234;49.344;11.120;2023-09-08T07:52:47;17.10;99.90
18218;DHT22;9234;49.344;11.120;2023-09-08T07:55:18;17.20;99.90
18218;DHT22;9234;49.344;11.120;2023-09-08T07:57:50;17.30;99.90
18218;DHT22;9234;49.344;11.120;2023-09-08T08:00:19;17.50;99.90
18218;DHT22;9234;49.344;11.120;2023-09-08T08:02:50;17.60;99.90
18218;DHT22;9234;49.344;11.120;2023-09-08T08:05:21;17.80;99.90
18218;DHT22;9234;49.344;11.120;2023-09-08T08:07:50;18.00;99.90
18218;DHT22;9234;49.344;11.120;2023-09-08T08:10:20;18.10;99.90
18218;DHT22;9234;49.344;11.120;2023-09-08T08:12:48;18.20;99.90
18218;DHT22;9234;49.344;11.120;2023-09-08T08:15:19;18.40;99.90
18218;DHT22;9234;49.344;11.120;2023-09-08T08:17:48;18.50;99.90
18218;DHT22;9234;49.344;11.120;2023-09-08T08:20:17;18.70;99.90
18218;DHT22;9234;49.344;11.120;2023-09-08T08:22:46;18.90;99.90
18218;DHT22;9234;49.344;11.120;2023-09-08T08:25:15;19.10;99.90
18218;DHT22;9234;49.344;11.120;2023-09-08T08:27:44;19.20;99.90
18218;DHT22;9234;49.344;11.120;2023-09-08T08:30:13;19.40;99.90
18218;DHT22;9234;49.344;11.120;2023-09-08T08:32:41;19.50;99.90
18218;DHT22;9234;49.344;11.120;2023-09-08T08:35:10;19.70;99.90
18218;DHT22;9234;49.344;11.120;2023-09-08T08:37:40;19.90;99.90
18218;DHT22;9234;49.344;11.120;2023-09-08T08:40:10;20.00;99.90
18218;DHT22;9234;49.344;11.120;2023-09-08T08:42:40;20.20;99.90
18218;DHT22;9234;49.344;11.120;2023-09-08T08:45:11;20.40;99.90
18218;DHT22;9234;49.344;11.120;2023-09-08T08:47:40;20.60;99.90
18218;DHT22;9234;49.344;11.120;2023-09-08T08:50:10;20.80;99.90
18218;DHT22;9234;49.344;11.120;2023-09-08T08:52:40;21.00;99.90
18218;DHT22;9234;49.344;11.120;2023-09-08T08:55:09;21.20;99.90
18218;DHT22;9234;49.344;11.120;2023-09-08T08:57:38;21.30;99.90
18218;DHT22;9234;49.344;11.120;2023-09-08T09:00:10;21.50;99.90
18218;DHT22;9234;49.344;11.120;2023-09-08T09:02:43;21.70;99.90
18218;DHT22;9234;49.344;11.120;2023-09-08T09:05:25;21.90;99.90
18218;DHT22;9234;49.344;11.120;2023-09-08T09:07:54;22.10;99.90
18218;DHT22;9234;49.344;11.120;2023-09-08T09:10:26;22.30;99.90
18218;DHT22;9234;49.344;11.120;2023-09-08T09:12:54;22.50;99.10
18218;DHT22;9234;49.344;11.120;2023-09-08T09:15:29;22.70;98.60
18218;DHT22;9234;49.344;11.120;2023-09-08T09:18:03;22.80;97.40
18218;DHT22;9234;49.344;11.120;2023-09-08T09:20:33;23.10;97.40
18218;DHT22;9234;49.344;11.120;2023-09-08T09:23:02;23.30;97.00
18218;DHT22;9234;49.344;11.120;2023-09-08T09:25:31;23.40;96.50
18218;DHT22;9234;49.344;11.120;2023-09-08T09:28:01;23.60;96.10
18218;DHT22;9234;49.344;11.120;2023-09-08T09:30:47;23.80;95.90
18218;DHT22;9234;49.344;11.120;2023-09-08T09:33:18;24.10;94.90
18218;DHT22;9234;49.344;11.120;2023-09-08T09:35:48;24.20;94.90
18218;DHT22;9234;49.344;11.120;2023-09-08T09:38:19;24.40;93.50
18218;DHT22;9234;49.344;11.120;2023-09-08T09:40:48;24.60;93.20
18218;DHT22;9234;49.344;11.120;2023-09-08T09:43:21;24.70;92.70
18218;DHT22;9234;49.344;11.120;2023-09-08T09:45:52;24.90;91.60
18218;DHT22;9234;49.344;11.120;2023-09-08T09:48:22;25.00;90.80
18218;DHT22;9234;49.344;11.120;2023-09-08T09:50:52;25.20;91.10
18218;DHT22;9234;49.344;11.120;2023-09-08T09:53:20;25.30;90.90
18218;DHT22;9234;49.344;11.120;2023-09-08T09:55:51;25.50;91.10
18218;DHT22;9234;49.344;11.120;2023-09-08T09:58:20;25.70;90.70
18218;DHT22;9234;49.344;11.120;2023-09-08T10:00:51;25.80;90.00
18218;DHT22;9234;49.344;11.120;2023-09-08T10:03:21;26.00;88.40
18218;DHT22;9234;49.344;11.120;2023-09-08T10:05:52;26.20;88.70
18218;DHT22;9234;49.344;11.120;2023-09-08T10:08:21;26.40;88.20
18218;DHT22;9234;49.344;11.120;2023-09-08T10:10:50;26.50;87.00
18218;DHT22;9234;49.344;11.120;2023-09-08T10:13:25;26.60;86.70
18218;DHT22;9234;49.344;11.120;2023-09-08T10:15:57;26.80;84.40
18218;DHT22;9234;49.344;11.120;2023-09-08T10:18:29;26.90;84.30
18218;DHT22;9234;49.344;11.120;2023-09-08T10:21:02;27.10;85.40
18218;DHT22;9234;49.344;11.120;2023-09-08T10:23:36;27.30;85.70
18218;DHT22;9234;49.344;11.120;2023-09-08T10:26:10;27.60;83.50
18218;DHT22;9234;49.344;11.120;2023-09-08T10:28:39;27.70;82.60
18218;DHT22;9234;49.344;11.120;2023-09-08T10:31:09;27.90;83.20
18218;DHT22;9234;49.344;11.120;2023-09-08T10:33:42;28.00;83.70
18218;DHT22;9234;49.344;11.120;2023-09-08T10:36:12;28.10;79.60
18218;DHT22;9234;49.344;11.120;2023-09-08T10:38:41;28.20;79.00
18218;DHT22;9234;49.344;11.120;2023-09-08T10:41:32;28.40;77.40
18218;DHT22;9234;49.344;11.120;2023-09-08T10:44:07;28.50;76.10
18218;DHT22;9234;49.344;11.120;2023-09-08T10:46:37;28.50;73.20
18218;DHT22;9234;49.344;11.120;2023-09-08T10:49:06;28.60;74.90
18218;DHT22;9234;49.344;11.120;2023-09-08T10:51:37;28.70;72.20
18218;DHT22;9234;49.344;11.120;2023-09-08T10:54:06;28.80;72.70
18218;DHT22;9234;49.344;11.120;2023-09-08T10:56:48;29.00;75.50
18218;DHT22;9234;49.344;11.120;2023-09-08T10:59:22;29.30;74.50
18218;DHT22;9234;49.344;11.120;2023-09-08T11:01:55;29.50;72.50
18218;DHT22;9234;49.344;11.120;2023-09-08T11:04:24;29.70;69.40
18218;DHT22;9234;49.344;11.120;2023-09-08T11:06:56;29.90;72.20
18218;DHT22;9234;49.344;11.120;2023-09-08T11:09:24;30.10;71.60
18218;DHT22;9234;49.344;11.120;2023-09-08T11:11:53;30.20;68.50
18218;DHT22;9234;49.344;11.120;2023-09-08T11:14:21;30.30;64.20
18218;DHT22;9234;49.344;11.120;2023-09-08T11:16:50;30.40;66.20
18218;DHT22;9234;49.344;11.120;2023-09-08T11:19:19;30.40;66.20
18218;DHT22;9234;49.344;11.120;2023-09-08T11:21:47;30.40;64.00
18218;DHT22;9234;49.344;11.120;2023-09-08T11:24:16;30.40;65.20
18218;DHT22;9234;49.344;11.120;2023-09-08T11:26:45;30.60;64.80
18218;DHT22;9234;49.344;11.120;2023-09-08T11:29:17;30.70;65.70
18218;DHT22;9234;49.344;11.120;2023-09-08T11:31:51;30.90;64.90
18218;DHT22;9234;49.344;11.120;2023-09-08T11:34:22;31.00;62.20
18218;DHT22;9234;49.344;11.120;2023-09-08T11:36:50;31.10;62.20
18218;DHT22;9234;49.344;11.120;2023-09-08T11:39:23;31.10;59.80
18218;DHT22;9234;49.344;11.120;2023-09-08T11:41:52;31.00;60.80
18218;DHT22;9234;49.344;11.120;2023-09-08T11:44:21;31.10;63.00
18218;DHT22;9234;49.344;11.120;2023-09-08T11:46:50;31.30;61.70
18218;DHT22;9234;49.344;11.120;2023-09-08T11:49:19;31.50;60.00
18218;DHT22;9234;49.344;11.120;2023-09-08T11:51:51;31.70;58.60
18218;DHT22;9234;49.344;11.120;2023-09-08T11:54:19;31.90;59.80
18218;DHT22;9234;49.344;11.120;2023-09-08T11:56:48;32.10;57.40
18218;DHT22;9234;49.344;11.120;2023-09-08T11:59:17;32.20;56.60
18218;DHT22;9234;49.344;11.120;2023-09-08T12:01:46;32.20;57.80
18218;DHT22;9234;49.344;11.120;2023-09-08T12:04:17;32.40;58.10
18218;DHT22;9234;49.344;11.120;2023-09-08T12:06:48;32.60;57.80
18218;DHT22;9234;49.344;11.120;2023-09-08T12:09:20;32.80;55.50
18218;DHT22;9234;49.344;11.120;2023-09-08T12:11:49;32.90;54.40
18218;DHT22;9234;49.344;11.120;2023-09-08T12:14:17;33.10;55.80
18218;DHT22;9234;49.344;11.120;2023-09-08T12:16:46;33.40;55.60
18218;DHT22;9234;49.344;11.120;2023-09-08T12:19:30;33.50;54.60
18218;DHT22;9234;49.344;11.120;2023-09-08T12:22:01;33.70;55.30
18218;DHT22;9234;49.344;11.120;2023-09-08T12:24:57;33.90;53.20
18218;DHT22;9234;49.344;11.120;2023-09-08T12:27:26;34.10;52.80
18218;DHT22;9234;49.344;11.120;2023-09-08T12:29:55;34.40;54.00
18218;DHT22;9234;49.344;11.120;2023-09-08T12:32:25;34.70;53.20
18218;DHT22;9234;49.344;11.120;2023-09-08T12:34:54;34.80;51.00
18218;DHT22;9234;49.344;11.120;2023-09-08T12:37:23;34.80;51.40
18218;DHT22;9234;49.344;11.120;2023-09-08T12:39:56;35.00;52.70
18218;DHT22;9234;49.344;11.120;2023-09-08T12:42:24;35.30;52.60
18218;DHT22;9234;49.344;11.120;2023-09-08T12:44:57;35.50;50.00
18218;DHT22;9234;49.344;11.120;2023-09-08T12:47:25;35.60;50.50
18218;DHT22;9234;49.344;11.120;2023-09-08T12:49:54;35.80;51.30
18218;DHT22;9234;49.344;11.120;2023-09-08T12:52:22;36.00;49.10
18218;DHT22;9234;49.344;11.120;2023-09-08T12:54:51;36.20;48.30
18218;DHT22;9234;49.344;11.120;2023-09-08T12:57:20;36.40;48.10
18218;DHT22;9234;49.344;11.120;2023-09-08T12:59:49;36.60;48.90
18218;DHT22;9234;49.344;11.120;2023-09-08T13:02:18;36.90;47.70
18218;DHT22;9234;49.344;11.120;2023-09-08T13:04:46;37.00;45.80
18218;DHT22;9234;49.344;11.120;2023-09-08T13:07:15;37.20;45.60
18218;DHT22;9234;49.344;11.120;2023-09-08T13:09:44;37.50;46.20
18218;DHT22;9234;49.344;11.120;2023-09-08T13:12:12;37.70;46.80
18218;DHT22;9234;49.344;11.120;2023-09-08T13:14:42;38.00;45.40
18218;DHT22;9234;49.344;11.120;2023-09-08T13:17:11;38.30;45.60
18218;DHT22;9234;49.344;11.120;2023-09-08T13:19:39;38.50;45.90
18218;DHT22;9234;49.344;11.120;2023-09-08T13:22:08;38.70;45.20
18218;DHT22;9234;49.344;11.120;2023-09-08T13:24:36;38.80;43.30
18218;DHT22;9234;49.344;11.120;2023-09-08T13:27:05;38.90;44.30
18218;DHT22;9234;49.344;11.120;2023-09-08T13:29:33;39.00;44.30
18218;DHT22;9234;49.344;11.120;2023-09-08T13:32:04;39.20;43.20
18218;DHT22;9234;49.344;11.120;2023-09-08T13:34:33;39.30;41.30
18218;DHT22;9234;49.344;11.120;2023-09-08T13:37:02;39.40;41.00
18218;DHT22;9234;49.344;11.120;2023-09-08T13:39:30;39.60;42.40
18218;DHT22;9234;49.344;11.120;2023-09-08T13:42:00;39.70;41.20
18218;DHT22;9234;49.344;11.120;2023-09-08T13:44:29;39.90;40.60
18218;DHT22;9234;49.344;11.120;2023-09-08T13:46:58;40.00;39.80
18218;DHT22;9234;49.344;11.120;2023-09-08T13:49:28;40.10;40.20
18218;DHT22;9234;49.344;11.120;2023-09-08T13:51:56;40.40;39.40
18218;DHT22;9234;49.344;11.120;2023-09-08T13:54:28;40.40;38.60
18218;DHT22;9234;49.344;11.120;2023-09-08T13:57:00;40.30;38.90
18218;DHT22;9234;49.344;11.120;2023-09-08T13:59:33;40.40;38.70
18218;DHT22;9234;49.344;11.120;2023-09-08T14:02:03;40.40;39.20
18218;DHT22;9234;49.344;11.120;2023-09-08T14:04:36;40.50;38.50
18218;DHT22;9234;49.344;11.120;2023-09-08T14:07:08;40.50;38.70
18218;DHT22;9234;49.344;11.120;2023-09-08T14:09:44;40.50;37.50
18218;DHT22;9234;49.344;11.120;2023-09-08T14:12:15;40.50;38.20
18218;DHT22;9234;49.344;11.120;2023-09-08T14:14:46;40.70;37.60
18218;DHT22;9234;49.344;11.120;2023-09-08T14:17:15;41.00;38.10
18218;DHT22;9234;49.344;11.120;2023-09-08T14:19:44;41.20;37.50
18218;DHT22;9234;49.344;11.120;2023-09-08T14:22:13;41.30;36.80
18218;DHT22;9234;49.344;11.120;2023-09-08T14:24:41;41.30;37.20
18218;DHT22;9234;49.344;11.120;2023-09-08T14:27:09;41.40;38.20
18218;DHT22;9234;49.344;11.120;2023-09-08T14:29:37;41.30;36.40
18218;DHT22;9234;49.344;11.120;2023-09-08T14:32:06;41.20;37.70
18218;DHT22;9234;49.344;11.120;2023-09-08T14:34:34;41.30;38.30
18218;DHT22;9234;49.344;11.120;2023-09-08T14:37:04;41.50;38.00
18218;DHT22;9234;49.344;11.120;2023-09-08T14:39:35;41.60;38.40
18218;DHT22;9234;49.344;11.120;2023-09-08T14:42:03;41.80;37.20
18218;DHT22;9234;49.344;11.120;2023-09-08T14:44:32;41.70;37.20
18218;DHT22;9234;49.344;11.120;2023-09-08T14:47:01;41.80;38.10
18218;DHT22;9234;49.344;11.120;2023-09-08T14:49:29;41.80;37.40
18218;DHT22;9234;49.344;11.120;2023-09-08T14:51:57;41.90;37.60
18218;DHT22;9234;49.344;11.120;2023-09-08T14:54:27;42.00;38.10
18218;DHT22;9234;49.344;11.120;2023-09-08T14:56:55;42.10;37.80
18218;DHT22;9234;49.344;11.120;2023-09-08T14:59:24;42.00;37.50
18218;DHT22;9234;49.344;11.120;2023-09-08T15:01:52;42.00;36.90
18218;DHT22;9234;49.344;11.120;2023-09-08T15:04:21;41.80;37.30
18218;DHT22;9234;49.344;11.120;2023-09-08T15:06:49;41.60;37.20
18218;DHT22;9234;49.344;11.120;2023-09-08T15:09:17;41.50;38.20
18218;DHT22;9234;49.344;11.120;2023-09-08T15:11:47;41.60;38.60
18218;DHT22;9234;49.344;11.120;2023-09-08T15:14:16;41.60;38.00
18218;DHT22;9234;49.344;11.120;2023-09-08T15:16:44;41.60;38.80
18218;DHT22;9234;49.344;11.120;2023-09-08T15:19:13;41.60;38.10
18218;DHT22;9234;49.344;11.120;2023-09-08T15:21:41;41.60;37.80
18218;DHT22;9234;49.344;11.120;2023-09-08T15:24:09;41.70;38.10
18218;DHT22;9234;49.344;11.120;2023-09-08T15:26:37;41.80;39.10
18218;DHT22;9234;49.344;11.120;2023-09-08T15:29:07;41.80;38.10
18218;DHT22;9234;49.344;11.120;2023-09-08T15:31:36;41.70;37.50
18218;DHT22;9234;49.344;11.120;2023-09-08T15:34:04;41.60;37.20
18218;DHT22;9234;49.344;11.120;2023-09-08T15:36:34;41.50;37.20
18218;DHT22;9234;49.344;11.120;2023-09-08T15:39:03;41.30;38.00
18218;DHT22;9234;49.344;11.120;2023-09-08T15:41:31;41.30;38.30
18218;DHT22;9234;49.344;11.120;2023-09-08T15:43:59;41.20;38.40
18218;DHT22;9234;49.344;11.120;2023-09-08T15:46:29;41.10;38.50
18218;DHT22;9234;49.344;11.120;2023-09-08T15:48:57;41.00;38.70